Time;durP1;ratioP1;P1;durP2;ratioP2;P2;SDS_P1;SDS_P2;PMS_P1;PMS_P2;Temp;Humidity;BMP_temperature;BMP_pressure;BME280_temperature;BME280_humidity;BME280_pressure;Samples;Min_cycle;Max_cycle;Signal;HPM_P1;HPM_P2
2022/03/13 00:02:02;;;;;;;13.77;6.50;;;;;;;;;;5088154;28;20469;-63
2022/03/13 00:04:28;;;;;;;12.35;6.72;;;;;;;;;;5088380;28;20525;-63
2022/03/13 00:06:56;;;;;;;11.88;6.72;;;;;;;;;;5088430;28;20901;-62
2022/03/13 00:09:23;;;;;;;11.65;6.75;;;;;;;;;;5089252;28;20087;-62
2022/03/13 00:11:53;;;;;;;12.32;6.82;;;;;;;;;;5087911;28;20495;-63
2022/03/13 00:14:21;;;;;;;11.70;6.65;;;;;;;;;;5088468;28;20938;-62
2022/03/13 00:16:49;;;;;;;13.82;6.82;;;;;;;;;;5088488;28;20057;-62
2022/03/13 00:19:16;;;;;;;12.75;6.70;;;;;;;;;;5088308;28;20051;-63
2022/03/13 00:21:48;;;;;;;13.25;6.43;;;;;;;;;;5069229;28;20055;-62
2022/03/13 00:24:20;;;;;;;16.23;7.18;;;;;;;;;;5067921;28;20144;-62
2022/03/13 00:26:47;;;;;;;13.68;7.57;;;;;;;;;;5068522;28;20139;-62
2022/03/13 00:29:13;;;;;;;11.50;6.22;;;;;;;;;;5067183;28;20164;-62
2022/03/13 00:31:39;;;;;;;12.63;7.00;;;;;;;;;;5082188;28;20062;-62
2022/03/13 00:34:11;;;;;;;12.32;6.03;;;;;;;;;;5087818;28;20106;-62
2022/03/13 00:36:38;;;;;;;12.48;6.93;;;;;;;;;;5086650;28;20135;-63
2022/03/13 00:39:05;;;;;;;12.30;6.78;;;;;;;;;;5088609;28;20139;-62
2022/03/13 00:41:31;;;;;;;10.93;6.40;;;;;;;;;;5088436;28;20513;-62
2022/03/13 00:43:58;;;;;;;11.45;6.40;;;;;;;;;;5088067;28;20057;-62
2022/03/13 00:46:25;;;;;;;10.88;6.15;;;;;;;;;;5088761;28;20063;-63
2022/03/13 00:48:52;;;;;;;10.45;6.10;;;;;;;;;;5087931;28;20055;-63
2022/03/13 00:51:19;;;;;;;12.23;6.18;;;;;;;;;;5088483;28;20051;-63
2022/03/13 00:53:45;;;;;;;11.60;6.55;;;;;;;;;;5086210;28;20057;-63
2022/03/13 00:56:12;;;;;;;10.40;5.95;;;;;;;;;;5088264;28;20517;-63
2022/03/13 00:58:40;;;;;;;12.07;6.35;;;;;;;;;;5088290;28;20194;-63
2022/03/13 01:01:07;;;;;;;12.90;6.45;;;;;;;;;;5068343;28;20140;-63
2022/03/13 01:03:36;;;;;;;14.13;6.68;;;;;;;;;;5067786;28;20126;-63
2022/03/13 01:06:03;;;;;;;11.32;6.45;;;;;;;;;;5068272;28;20053;-62
2022/03/13 01:08:30;;;;;;;11.50;6.57;;;;;;;;;;5068487;28;20041;-63
2022/03/13 01:10:56;;;;;;;12.05;6.00;;;;;;;;;;5072796;28;20052;-62
2022/03/13 01:13:23;;;;;;;10.48;5.72;;;;;;;;;;5086704;28;20512;-62
2022/03/13 01:15:49;;;;;;;11.15;6.38;;;;;;;;;;5087746;28;20060;-62
2022/03/13 01:18:16;;;;;;;11.63;6.28;;;;;;;;;;5087568;28;20052;-63
2022/03/13 01:20:45;;;;;;;11.30;5.43;;;;;;;;;;5086671;28;20159;-62
2022/03/13 01:23:13;;;;;;;10.20;5.38;;;;;;;;;;5087335;28;20574;-62
2022/03/13 01:25:39;;;;;;;9.73;4.88;;;;;;;;;;5085461;28;20053;-63
2022/03/13 01:28:11;;;;;;;10.00;5.55;;;;;;;;;;5085962;28;20494;-62
2022/03/13 01:30:37;;;;;;;10.90;5.60;;;;;;;;;;5082395;28;20057;-62
2022/03/13 01:33:03;;;;;;;9.55;5.38;;;;;;;;;;5066771;28;20048;-63
2022/03/13 01:35:30;;;;;;;9.57;5.05;;;;;;;;;;5066985;28;20055;-62
2022/03/13 01:37:57;;;;;;;12.38;5.53;;;;;;;;;;5066326;28;20506;-62
2022/03/13 01:40:24;;;;;;;9.27;5.18;;;;;;;;;;5066721;28;20598;-62
2022/03/13 01:42:51;;;;;;;8.68;4.57;;;;;;;;;;5066761;28;20151;-63
2022/03/13 01:45:18;;;;;;;9.30;4.82;;;;;;;;;;5066790;28;20430;-63
2022/03/13 01:47:45;;;;;;;8.55;4.95;;;;;;;;;;5066261;28;20045;-62
2022/03/13 01:50:12;;;;;;;8.52;4.63;;;;;;;;;;5068563;28;20533;-62
2022/03/13 01:52:39;;;;;;;9.20;4.82;;;;;;;;;;5070478;28;20510;-62
2022/03/13 01:55:06;;;;;;;9.45;4.70;;;;;;;;;;5068906;28;20059;-63
2022/03/13 01:57:33;;;;;;;8.05;4.40;;;;;;;;;;5070517;28;20051;-62
2022/03/13 02:00:00;;;;;;;8.20;4.43;;;;;;;;;;5069845;28;20049;-62
2022/03/13 02:02:29;;;;;;;8.52;4.75;;;;;;;;;;5079985;28;20065;-62
2022/03/13 02:04:59;;;;;;;8.50;4.35;;;;;;;;;;5090248;28;20852;-62
2022/03/13 02:07:27;;;;;;;7.70;4.35;;;;;;;;;;5089479;28;20057;-62
2022/03/13 02:09:55;;;;;;;9.73;4.23;;;;;;;;;;5090089;28;20056;-62
2022/03/13 02:12:23;;;;;;;12.35;4.35;;;;;;;;;;5090112;28;20061;-62
2022/03/13 02:14:49;;;;;;;;;;;;;;;;;;5089174;28;20103;-62
2022/03/13 02:17:27;;;;;;;7.78;4.07;;;;;;;;;;5088789;28;44496;-62
2022/03/13 02:19:55;;;;;;;9.52;4.40;;;;;;;;;;5089284;28;20118;-62
2022/03/13 02:22:22;;;;;;;7.97;4.18;;;;;;;;;;5089740;28;20056;-62
2022/03/13 02:24:48;;;;;;;9.55;4.65;;;;;;;;;;5089495;28;20056;-62
2022/03/13 02:27:18;;;;;;;9.70;4.75;;;;;;;;;;5089074;28;20434;-63
2022/03/13 02:29:45;;;;;;;9.30;5.00;;;;;;;;;;5090052;28;20512;-62
2022/03/13 02:32:11;;;;;;;7.93;4.55;;;;;;;;;;5071642;28;20045;-62
2022/03/13 02:34:37;;;;;;;11.40;5.22;;;;;;;;;;5069042;28;20478;-62
2022/03/13 02:37:04;;;;;;;10.85;5.10;;;;;;;;;;5069967;28;20067;-62
2022/03/13 02:39:34;;;;;;;8.77;4.80;;;;;;;;;;5068388;28;20087;-62
2022/03/13 02:42:00;;;;;;;10.68;4.70;;;;;;;;;;5069630;28;20059;-62
2022/03/13 02:44:26;;;;;;;9.25;4.82;;;;;;;;;;5069575;28;20055;-64
2022/03/13 02:47:01;;;;;;;8.10;4.35;;;;;;;;;;5069340;28;20049;-62
2022/03/13 02:49:28;;;;;;;10.18;4.47;;;;;;;;;;5068950;28;20160;-62
2022/03/13 02:51:56;;;;;;;8.32;4.43;;;;;;;;;;5069141;28;20049;-63
2022/03/13 02:54:23;;;;;;;9.40;4.95;;;;;;;;;;5069521;28;20513;-62
2022/03/13 02:56:49;;;;;;;9.27;4.38;;;;;;;;;;5068765;28;20140;-62
2022/03/13 02:59:16;;;;;;;8.35;4.72;;;;;;;;;;5068374;28;20053;-62
2022/03/13 03:01:43;;;;;;;10.00;4.70;;;;;;;;;;5068754;28;20048;-62
2022/03/13 03:04:10;;;;;;;8.70;4.63;;;;;;;;;;5068685;28;20111;-62
2022/03/13 03:06:39;;;;;;;11.05;5.43;;;;;;;;;;5068904;28;20057;-62
2022/03/13 03:09:05;;;;;;;10.57;4.88;;;;;;;;;;5068185;28;20057;-62
2022/03/13 03:11:35;;;;;;;9.90;4.95;;;;;;;;;;5087394;28;20063;-62
2022/03/13 03:14:01;;;;;;;10.07;5.43;;;;;;;;;;5088716;28;20055;-62
2022/03/13 03:16:28;;;;;;;10.77;5.53;;;;;;;;;;5089169;28;20055;-62
2022/03/13 03:18:54;;;;;;;10.60;5.80;;;;;;;;;;5088791;28;20049;-62
2022/03/13 03:21:21;;;;;;;11.32;5.63;;;;;;;;;;5087664;28;20059;-62
2022/03/13 03:23:47;;;;;;;10.20;5.60;;;;;;;;;;5088670;28;20041;-62
2022/03/13 03:26:14;;;;;;;10.98;5.55;;;;;;;;;;5088576;28;20080;-62
2022/03/13 03:28:40;;;;;;;11.93;5.65;;;;;;;;;;5087230;28;20547;-62
2022/03/13 03:31:07;;;;;;;11.43;6.25;;;;;;;;;;5088501;28;20056;-62
2022/03/13 03:33:33;;;;;;;11.73;5.38;;;;;;;;;;5089147;28;20044;-63
2022/03/13 03:35:59;;;;;;;12.40;5.90;;;;;;;;;;5087848;28;20052;-62
2022/03/13 03:38:26;;;;;;;12.40;6.07;;;;;;;;;;5088465;28;20056;-62
2022/03/13 03:40:52;;;;;;;11.93;6.20;;;;;;;;;;5088628;28;20110;-62
2022/03/13 03:43:19;;;;;;;9.90;5.40;;;;;;;;;;5087405;28;20143;-62
2022/03/13 03:45:45;;;;;;;10.75;5.47;;;;;;;;;;5089212;28;20167;-67
2022/03/13 03:48:11;;;;;;;9.73;5.80;;;;;;;;;;5088454;28;20084;-62
2022/03/13 03:50:38;;;;;;;10.45;5.63;;;;;;;;;;5088210;28;20147;-63
2022/03/13 03:53:04;;;;;;;11.60;6.30;;;;;;;;;;5087707;28;20080;-63
2022/03/13 03:55:30;;;;;;;11.75;6.00;;;;;;;;;;5088135;28;20062;-63
2022/03/13 03:57:57;;;;;;;12.80;6.22;;;;;;;;;;5087347;28;20048;-65
2022/03/13 04:00:23;;;;;;;10.48;5.85;;;;;;;;;;5088353;28;20083;-63
2022/03/13 04:02:50;;;;;;;11.30;6.00;;;;;;;;;;5073605;28;20513;-63
2022/03/13 04:05:16;;;;;;;12.23;6.43;;;;;;;;;;5067715;28;20052;-65
2022/03/13 04:07:43;;;;;;;10.65;5.68;;;;;;;;;;5068978;28;20052;-64
2022/03/13 04:10:12;;;;;;;10.77;6.40;;;;;;;;;;5067734;28;20080;-64
2022/03/13 04:12:39;;;;;;;10.88;6.32;;;;;;;;;;5066993;28;20267;-63
2022/03/13 04:15:05;;;;;;;11.55;6.40;;;;;;;;;;5067256;28;20057;-63
2022/03/13 04:17:32;;;;;;;14.27;7.00;;;;;;;;;;5069346;28;20132;-62
2022/03/13 04:19:58;;;;;;;12.85;6.43;;;;;;;;;;5087662;28;20052;-62
2022/03/13 04:22:25;;;;;;;13.13;7.65;;;;;;;;;;5087877;28;20944;-62
2022/03/13 04:24:51;;;;;;;11.07;6.38;;;;;;;;;;5087718;28;20148;-62
2022/03/13 04:27:17;;;;;;;12.23;6.65;;;;;;;;;;5087234;28;20049;-62
2022/03/13 04:29:44;;;;;;;13.48;7.45;;;;;;;;;;5088162;28;20049;-62
2022/03/13 04:32:11;;;;;;;12.82;6.90;;;;;;;;;;5088063;28;20059;-62
2022/03/13 04:34:37;;;;;;;11.80;6.63;;;;;;;;;;5070996;28;20207;-62
2022/03/13 04:37:04;;;;;;;12.10;6.97;;;;;;;;;;5067057;28;20053;-63
2022/03/13 04:39:35;;;;;;;12.18;7.13;;;;;;;;;;5067241;28;20107;-62
2022/03/13 04:42:05;;;;;;;13.75;7.63;;;;;;;;;;5066747;28;20246;-62
2022/03/13 04:44:32;;;;;;;13.25;7.20;;;;;;;;;;5067296;28;20047;-62
2022/03/13 04:46:59;;;;;;;16.00;8.10;;;;;;;;;;5066946;28;20052;-62
2022/03/13 04:49:25;;;;;;;15.07;7.57;;;;;;;;;;5067328;28;20060;-62
2022/03/13 04:51:51;;;;;;;15.25;8.48;;;;;;;;;;5067334;28;20511;-62
2022/03/13 04:54:18;;;;;;;15.20;8.35;;;;;;;;;;5067302;28;20053;-63
2022/03/13 04:56:44;;;;;;;14.65;8.48;;;;;;;;;;5067405;28;20540;-62
2022/03/13 04:59:11;;;;;;;14.18;8.00;;;;;;;;;;5067212;28;20055;-62
2022/03/13 05:01:38;;;;;;;16.70;9.48;;;;;;;;;;5066915;28;20077;-62
2022/03/13 05:04:08;;;;;;;19.15;9.55;;;;;;;;;;5067022;28;20948;-62
2022/03/13 05:06:37;;;;;;;15.75;9.35;;;;;;;;;;5066469;28;20057;-62
2022/03/13 05:09:04;;;;;;;17.80;9.27;;;;;;;;;;5067668;28;20061;-62
2022/03/13 05:11:30;;;;;;;17.70;10.07;;;;;;;;;;5067037;28;20537;-62
2022/03/13 05:13:57;;;;;;;16.58;10.02;;;;;;;;;;5066792;28;20052;-62
2022/03/13 05:16:23;;;;;;;19.33;9.70;;;;;;;;;;5066740;28;20884;-62
2022/03/13 05:18:49;;;;;;;18.40;10.25;;;;;;;;;;5067029;28;20053;-62
2022/03/13 05:21:17;;;;;;;17.65;10.13;;;;;;;;;;5066449;28;20091;-62
2022/03/13 05:23:44;;;;;;;17.88;10.27;;;;;;;;;;5069532;28;20049;-62
2022/03/13 05:26:10;;;;;;;19.15;10.57;;;;;;;;;;5070354;28;20479;-62
2022/03/13 05:28:36;;;;;;;19.92;10.80;;;;;;;;;;5069789;28;20049;-62
2022/03/13 05:31:03;;;;;;;17.17;10.38;;;;;;;;;;5069856;28;20517;-62
2022/03/13 05:33:30;;;;;;;20.27;10.82;;;;;;;;;;5077379;28;20529;-62
2022/03/13 05:35:58;;;;;;;20.15;11.20;;;;;;;;;;5090308;28;20059;-62
2022/03/13 05:38:24;;;;;;;21.23;10.98;;;;;;;;;;5091070;28;20041;-62
2022/03/13 05:40:51;;;;;;;21.45;10.60;;;;;;;;;;5090100;28;20060;-62
2022/03/13 05:43:18;;;;;;;20.77;11.23;;;;;;;;;;5081410;28;20140;-63
2022/03/13 05:45:45;;;;;;;17.88;10.13;;;;;;;;;;5070329;28;20053;-62
2022/03/13 05:48:15;;;;;;;20.60;11.70;;;;;;;;;;5069955;28;20175;-62
2022/03/13 05:50:41;;;;;;;21.38;11.45;;;;;;;;;;5069923;28;20053;-62
2022/03/13 05:53:08;;;;;;;20.58;11.23;;;;;;;;;;5069987;28;20052;-62
2022/03/13 05:55:34;;;;;;;20.88;12.13;;;;;;;;;;5069380;28;20057;-62
2022/03/13 05:58:01;;;;;;;22.13;12.18;;;;;;;;;;5069907;28;20527;-62
2022/03/13 06:00:31;;;;;;;20.38;12.32;;;;;;;;;;5079841;28;20140;-62
2022/03/13 06:02:58;;;;;;;21.58;12.70;;;;;;;;;;5090152;28;20045;-62
2022/03/13 06:05:25;;;;;;;22.38;12.18;;;;;;;;;;5089891;28;20054;-62
2022/03/13 06:07:51;;;;;;;22.35;12.50;;;;;;;;;;5089707;28;20049;-62
2022/03/13 06:10:20;;;;;;;21.52;12.38;;;;;;;;;;5090465;28;20825;-62
2022/03/13 06:12:47;;;;;;;23.50;12.93;;;;;;;;;;5089808;28;20053;-62
2022/03/13 06:15:14;;;;;;;22.20;12.35;;;;;;;;;;5089225;28;20053;-62
2022/03/13 06:17:42;;;;;;;20.38;12.68;;;;;;;;;;5089696;28;20062;-62
2022/03/13 06:20:10;;;;;;;18.45;10.45;;;;;;;;;;5089361;28;20110;-62
2022/03/13 06:22:37;;;;;;;22.25;12.70;;;;;;;;;;5089280;28;20054;-62
2022/03/13 06:25:05;;;;;;;23.05;13.05;;;;;;;;;;5090139;28;20045;-62
2022/03/13 06:27:31;;;;;;;23.55;12.48;;;;;;;;;;5089890;28;20063;-62
2022/03/13 06:29:59;;;;;;;24.50;12.82;;;;;;;;;;5088646;28;20055;-62
2022/03/13 06:32:26;;;;;;;17.70;11.05;;;;;;;;;;5089826;28;20057;-62
2022/03/13 06:34:52;;;;;;;20.10;11.90;;;;;;;;;;5069580;28;20077;-62
2022/03/13 06:37:18;;;;;;;18.88;10.73;;;;;;;;;;5069353;28;20592;-62
2022/03/13 06:39:45;;;;;;;22.38;12.43;;;;;;;;;;5069501;28;20057;-62
2022/03/13 06:42:11;;;;;;;20.08;11.68;;;;;;;;;;5069008;28;20195;-62
2022/03/13 06:44:38;;;;;;;19.73;11.43;;;;;;;;;;5068631;28;20053;-62
2022/03/13 06:47:05;;;;;;;19.13;11.27;;;;;;;;;;5069148;28;20041;-62
2022/03/13 06:49:31;;;;;;;21.88;13.00;;;;;;;;;;5069124;28;20918;-62
2022/03/13 06:51:58;;;;;;;21.05;11.75;;;;;;;;;;5082659;28;20048;-63
2022/03/13 06:54:24;;;;;;;19.90;11.18;;;;;;;;;;5089425;28;20056;-62
2022/03/13 06:56:51;;;;;;;22.88;11.48;;;;;;;;;;5088976;28;20506;-62
2022/03/13 06:59:17;;;;;;;21.23;11.77;;;;;;;;;;5088834;28;20049;-62
2022/03/13 07:01:43;;;;;;;20.75;12.20;;;;;;;;;;5089901;28;20063;-62
2022/03/13 07:04:12;;;;;;;21.73;12.38;;;;;;;;;;5089513;28;20159;-62
2022/03/13 07:06:38;;;;;;;;;;;;;;;;;;5070267;28;20053;-62
2022/03/13 07:09:05;;;;;;;22.25;11.73;;;;;;;;;;5082469;28;43767;-62
2022/03/13 07:11:34;;;;;;;22.27;12.55;;;;;;;;;;5088870;28;20184;-62
2022/03/13 07:14:07;;;;;;;24.13;12.27;;;;;;;;;;5089305;28;20060;-62
2022/03/13 07:16:33;;;;;;;23.00;11.20;;;;;;;;;;5089139;28;20054;-62
2022/03/13 07:18:59;;;;;;;20.92;12.07;;;;;;;;;;5089485;28;20275;-62
2022/03/13 07:21:26;;;;;;;22.25;12.10;;;;;;;;;;5088697;28;20060;-62
2022/03/13 07:23:52;;;;;;;22.13;11.52;;;;;;;;;;5088800;28;20433;-62
2022/03/13 07:26:18;;;;;;;19.80;11.65;;;;;;;;;;5088171;28;20058;-62
2022/03/13 07:28:45;;;;;;;18.60;11.35;;;;;;;;;;5088527;28;20048;-62
2022/03/13 07:31:11;;;;;;;18.08;10.73;;;;;;;;;;5088908;28;20049;-62
2022/03/13 07:33:37;;;;;;;17.65;10.45;;;;;;;;;;5087702;28;20063;-62
2022/03/13 07:36:04;;;;;;;18.92;10.88;;;;;;;;;;5087812;28;20052;-62
2022/03/13 07:38:30;;;;;;;22.35;10.93;;;;;;;;;;5089143;28;20049;-62
2022/03/13 07:40:57;;;;;;;22.00;11.40;;;;;;;;;;5087948;28;20055;-62
2022/03/13 07:43:23;;;;;;;20.38;11.45;;;;;;;;;;5086824;28;20079;-62
2022/03/13 07:45:50;;;;;;;19.63;10.48;;;;;;;;;;5088699;28;20222;-62
2022/03/13 07:48:16;;;;;;;19.45;11.43;;;;;;;;;;5088209;28;20059;-62
2022/03/13 07:50:42;;;;;;;19.45;10.85;;;;;;;;;;5087536;28;20471;-62
2022/03/13 07:53:09;;;;;;;17.90;11.30;;;;;;;;;;5087926;28;20064;-62
2022/03/13 07:55:35;;;;;;;18.33;10.50;;;;;;;;;;5088371;28;20524;-62
2022/03/13 07:58:02;;;;;;;20.67;10.93;;;;;;;;;;5086865;28;20059;-62
2022/03/13 08:00:28;;;;;;;20.08;11.98;;;;;;;;;;5087628;28;20060;-62
2022/03/13 08:02:55;;;;;;;19.05;10.52;;;;;;;;;;5087814;28;20044;-62
2022/03/13 08:05:21;;;;;;;17.30;10.73;;;;;;;;;;5079470;28;20119;-62
2022/03/13 08:07:49;;;;;;;20.80;11.02;;;;;;;;;;5068274;28;20423;-62
2022/03/13 08:10:23;;;;;;;18.95;10.75;;;;;;;;;;5067600;28;20053;-62
2022/03/13 08:12:51;;;;;;;18.20;10.75;;;;;;;;;;5067532;28;20076;-62
2022/03/13 08:15:19;;;;;;;;;;;;;;;;;;5069179;28;20147;-62
2022/03/13 08:17:45;;;;;;;19.70;11.10;;;;;;;;;;5066834;28;45413;-62
2022/03/13 08:20:12;;;;;;;19.67;10.80;;;;;;;;;;5067916;28;20063;-62
2022/03/13 08:22:39;;;;;;;19.30;11.32;;;;;;;;;;5067733;28;20041;-62
2022/03/13 08:25:06;;;;;;;20.05;11.10;;;;;;;;;;5067271;28;20529;-62
2022/03/13 08:27:34;;;;;;;18.13;10.73;;;;;;;;;;5066640;28;20071;-62
2022/03/13 08:30:01;;;;;;;22.92;12.10;;;;;;;;;;5067547;28;20092;-62
2022/03/13 08:32:27;;;;;;;22.20;11.43;;;;;;;;;;5068022;28;20063;-62
2022/03/13 08:34:54;;;;;;;24.58;11.15;;;;;;;;;;5067177;28;20045;-62
2022/03/13 08:37:20;;;;;;;21.70;11.40;;;;;;;;;;5067489;28;20487;-62
2022/03/13 08:39:47;;;;;;;22.02;11.13;;;;;;;;;;5067167;28;20057;-62
2022/03/13 08:42:13;;;;;;;20.33;10.35;;;;;;;;;;5066961;28;20049;-62
2022/03/13 08:44:39;;;;;;;17.77;10.95;;;;;;;;;;5067607;28;20095;-62
2022/03/13 08:47:06;;;;;;;21.85;10.73;;;;;;;;;;5067064;28;20503;-62
2022/03/13 08:49:32;;;;;;;19.40;11.13;;;;;;;;;;5068042;28;20052;-62
2022/03/13 08:51:58;;;;;;;19.83;11.40;;;;;;;;;;5066863;28;20144;-62
2022/03/13 08:54:25;;;;;;;22.23;11.40;;;;;;;;;;5067624;28;20060;-62
2022/03/13 08:56:51;;;;;;;21.45;11.00;;;;;;;;;;5066202;28;20131;-62
2022/03/13 08:59:21;;;;;;;20.85;10.07;;;;;;;;;;5070603;28;20057;-62
2022/03/13 09:01:48;;;;;;;20.52;10.75;;;;;;;;;;5070930;28;20049;-62
2022/03/13 09:04:14;;;;;;;19.88;10.85;;;;;;;;;;5070927;28;20085;-62
2022/03/13 09:06:43;;;;;;;19.08;10.55;;;;;;;;;;5071262;28;20065;-62
2022/03/13 09:09:10;;;;;;;17.63;10.23;;;;;;;;;;5071044;28;20485;-62
2022/03/13 09:11:36;;;;;;;17.60;9.65;;;;;;;;;;5069603;28;20061;-62
2022/03/13 09:14:04;;;;;;;17.80;9.65;;;;;;;;;;5069981;28;20491;-62
2022/03/13 09:16:32;;;;;;;18.92;10.48;;;;;;;;;;5070790;28;20053;-62
2022/03/13 09:18:59;;;;;;;17.38;9.43;;;;;;;;;;5070148;28;20521;-62
2022/03/13 09:21:25;;;;;;;18.55;10.40;;;;;;;;;;5070400;28;20056;-62
2022/03/13 09:23:51;;;;;;;17.80;9.80;;;;;;;;;;5075505;28;20049;-62
2022/03/13 09:26:17;;;;;;;16.63;9.52;;;;;;;;;;5090298;28;20057;-62
2022/03/13 09:28:44;;;;;;;16.75;9.48;;;;;;;;;;5090150;28;20528;-62
2022/03/13 09:31:10;;;;;;;18.15;10.48;;;;;;;;;;5090726;28;20059;-61
2022/03/13 09:33:37;;;;;;;17.90;10.77;;;;;;;;;;5090681;28;20151;-62
2022/03/13 09:36:03;;;;;;;16.80;8.82;;;;;;;;;;5089917;28;20076;-62
2022/03/13 09:38:29;;;;;;;17.73;9.95;;;;;;;;;;5072567;28;20067;-62
2022/03/13 09:40:56;;;;;;;19.33;10.30;;;;;;;;;;5070000;28;20049;-61
2022/03/13 09:43:22;;;;;;;19.38;9.70;;;;;;;;;;5069933;28;20064;-62
2022/03/13 09:45:49;;;;;;;15.82;9.38;;;;;;;;;;5070087;28;20056;-63
2022/03/13 09:48:17;;;;;;;18.42;10.32;;;;;;;;;;5070259;28;20101;-63
2022/03/13 09:50:43;;;;;;;17.77;9.63;;;;;;;;;;5070056;28;20415;-62
2022/03/13 09:53:11;;;;;;;17.88;9.98;;;;;;;;;;5069684;28;20374;-62
2022/03/13 09:55:38;;;;;;;20.15;9.98;;;;;;;;;;5089045;28;20053;-62
2022/03/13 09:58:06;;;;;;;23.95;10.13;;;;;;;;;;5083462;28;20140;-64
2022/03/13 10:00:32;;;;;;;19.10;9.30;;;;;;;;;;5068534;28;20053;-62
2022/03/13 10:02:59;;;;;;;18.92;10.00;;;;;;;;;;5070446;28;20057;-62
2022/03/13 10:05:27;;;;;;;17.85;10.57;;;;;;;;;;5069785;28;20061;-62
2022/03/13 10:07:54;;;;;;;19.43;10.13;;;;;;;;;;5078717;28;20149;-62
2022/03/13 10:10:21;;;;;;;21.33;9.70;;;;;;;;;;5088781;28;20049;-62
2022/03/13 10:12:48;;;;;;;25.33;10.27;;;;;;;;;;5089829;28;20145;-62
2022/03/13 10:15:14;;;;;;;24.13;11.35;;;;;;;;;;5081707;28;20800;-62
2022/03/13 10:17:41;;;;;;;18.45;9.98;;;;;;;;;;5069585;28;20063;-62
2022/03/13 10:20:14;;;;;;;20.05;9.23;;;;;;;;;;5069173;28;20059;-62
2022/03/13 10:22:44;;;;;;;19.92;11.32;;;;;;;;;;5069199;28;20189;-62
2022/03/13 10:25:13;;;;;;;20.55;10.40;;;;;;;;;;5068628;28;20057;-62
2022/03/13 10:27:39;;;;;;;;;;;;;;;;;;5069938;28;20049;-62
2022/03/13 10:30:09;;;;;;;19.33;9.93;;;;;;;;;;5068284;28;45871;-62
2022/03/13 10:32:36;;;;;;;21.58;11.10;;;;;;;;;;5070031;28;20082;-62
2022/03/13 10:35:03;;;;;;;18.48;10.23;;;;;;;;;;5068343;28;20063;-62
2022/03/13 10:37:33;;;;;;;19.80;10.85;;;;;;;;;;5079732;28;20061;-62
2022/03/13 10:40:14;;;;;;;18.38;11.15;;;;;;;;;;5089551;28;20084;-62
2022/03/13 10:42:44;;;;;;;19.77;9.88;;;;;;;;;;5089789;28;20131;-62
2022/03/13 10:45:11;;;;;;;18.35;10.05;;;;;;;;;;5089002;28;20517;-62
2022/03/13 10:47:38;;;;;;;19.40;10.87;;;;;;;;;;5089600;28;20056;-62
2022/03/13 10:50:06;;;;;;;20.33;9.90;;;;;;;;;;5087750;28;20305;-62
2022/03/13 10:52:36;;;;;;;25.33;10.55;;;;;;;;;;5089020;28;20052;-62
2022/03/13 10:55:14;;;;;;;17.95;9.65;;;;;;;;;;5089082;28;20053;-62
2022/03/13 10:57:41;;;;;;;;;;;;;;;;;;5089363;28;20504;-62
2022/03/13 11:00:08;;;;;;;16.95;8.77;;;;;;;;;;5087996;28;45628;-62
2022/03/13 11:02:35;;;;;;;15.48;8.88;;;;;;;;;;5089121;28;20056;-62
2022/03/13 11:05:01;;;;;;;15.02;8.85;;;;;;;;;;5089244;28;20056;-62
2022/03/13 11:07:28;;;;;;;16.02;9.13;;;;;;;;;;5088121;28;20048;-62
2022/03/13 11:09:54;;;;;;;15.60;8.35;;;;;;;;;;5089564;28;20135;-62
2022/03/13 11:12:22;;;;;;;16.95;9.15;;;;;;;;;;5088996;28;20099;-62
2022/03/13 11:14:56;;;;;;;18.45;8.80;;;;;;;;;;5088395;28;20144;-62
2022/03/13 11:17:25;;;;;;;15.88;8.65;;;;;;;;;;5089039;28;20056;-62
2022/03/13 11:19:51;;;;;;;;;;;;;;;;;;5089251;28;20140;-62
2022/03/13 11:22:21;;;;;;;17.20;9.32;;;;;;;;;;5086357;28;43703;-62
2022/03/13 11:24:48;;;;;;;16.33;8.48;;;;;;;;;;5088960;28;20062;-62
2022/03/13 11:27:15;;;;;;;17.55;8.98;;;;;;;;;;5088938;28;20162;-62
2022/03/13 11:29:46;;;;;;;21.52;10.38;;;;;;;;;;5088670;28;20044;-62
2022/03/13 11:32:28;;;;;;;20.02;10.30;;;;;;;;;;5088095;28;21006;-62
2022/03/13 11:35:18;;;;;;;14.55;9.30;;;;;;;;;;5088525;28;20048;-62
2022/03/13 11:37:45;;;;;;;18.00;9.75;;;;;;;;;;5088749;28;20139;-64
2022/03/13 11:40:14;;;;;;;16.20;9.10;;;;;;;;;;5087040;28;20173;-62
2022/03/13 11:42:47;;;;;;;26.35;9.60;;;;;;;;;;5088554;28;20058;-62
2022/03/13 11:45:35;;;;;;;18.40;9.15;;;;;;;;;;5089166;28;20508;-62
2022/03/13 11:48:05;;;;;;;18.38;9.00;;;;;;;;;;5088239;28;20080;-62
2022/03/13 11:50:51;;;;;;;16.55;9.90;;;;;;;;;;5088702;28;20154;-62
2022/03/13 11:53:21;;;;;;;16.80;9.27;;;;;;;;;;5088076;28;20070;-62
2022/03/13 11:56:10;;;;;;;15.93;8.35;;;;;;;;;;5088691;28;20060;-62
2022/03/13 11:58:44;;;;;;;16.08;7.95;;;;;;;;;;5068447;28;20140;-62
2022/03/13 12:01:21;;;;;;;18.27;9.25;;;;;;;;;;5067926;28;20061;-63
2022/03/13 12:04:15;;;;;;;17.27;8.40;;;;;;;;;;5068276;28;20049;-62
2022/03/13 12:06:49;;;;;;;13.88;8.38;;;;;;;;;;5067421;28;20051;-62
2022/03/13 12:09:15;;;;;;;17.90;8.95;;;;;;;;;;5068415;28;20102;-63
2022/03/13 12:11:44;;;;;;;16.85;9.30;;;;;;;;;;5067928;28;20152;-63
2022/03/13 12:14:11;;;;;;;16.70;8.88;;;;;;;;;;5074920;28;20057;-63
2022/03/13 12:16:38;;;;;;;15.17;9.07;;;;;;;;;;5087719;28;20174;-63
2022/03/13 12:19:05;;;;;;;16.35;8.48;;;;;;;;;;5088031;28;20045;-62
2022/03/13 12:21:32;;;;;;;13.57;7.13;;;;;;;;;;5088188;28;20053;-63
2022/03/13 12:24:15;;;;;;;12.27;7.03;;;;;;;;;;5087194;28;20048;-62
2022/03/13 12:26:42;;;;;;;11.00;6.63;;;;;;;;;;5087029;28;20048;-63
2022/03/13 12:29:11;;;;;;;13.13;7.50;;;;;;;;;;5088400;28;20403;-63
2022/03/13 12:31:38;;;;;;;14.45;7.88;;;;;;;;;;5085613;28;20855;-63
2022/03/13 12:34:05;;;;;;;15.75;7.45;;;;;;;;;;5087373;28;20075;-62
2022/03/13 12:36:35;;;;;;;17.98;7.85;;;;;;;;;;5087771;28;20066;-63
2022/03/13 12:39:02;;;;;;;14.38;8.52;;;;;;;;;;5087447;28;20052;-63
2022/03/13 12:41:29;;;;;;;16.80;9.32;;;;;;;;;;5068475;28;20056;-64
2022/03/13 12:43:58;;;;;;;15.20;8.40;;;;;;;;;;5067184;28;20063;-62
2022/03/13 12:46:25;;;;;;;14.55;8.65;;;;;;;;;;5067516;28;20060;-62
2022/03/13 12:48:56;;;;;;;14.40;8.40;;;;;;;;;;5067132;28;20057;-63
2022/03/13 12:51:34;;;;;;;14.13;8.68;;;;;;;;;;5067729;28;20048;-62
2022/03/13 12:54:05;;;;;;;13.93;8.23;;;;;;;;;;5072599;28;20111;-64
2022/03/13 12:56:33;;;;;;;14.68;9.35;;;;;;;;;;5086901;28;20049;-63
2022/03/13 12:58:59;;;;;;;17.13;9.20;;;;;;;;;;5086628;28;20056;-64
2022/03/13 13:01:25;;;;;;;15.43;8.35;;;;;;;;;;5087768;28;20501;-63
2022/03/13 13:03:52;;;;;;;14.07;8.15;;;;;;;;;;5087460;28;20575;-62
2022/03/13 13:06:34;;;;;;;16.67;8.40;;;;;;;;;;5069903;28;20049;-62
2022/03/13 13:09:00;;;;;;;15.90;8.50;;;;;;;;;;5067585;28;20057;-62
2022/03/13 13:11:30;;;;;;;15.98;8.40;;;;;;;;;;5084836;28;20063;-63
2022/03/13 13:13:57;;;;;;;14.18;8.38;;;;;;;;;;5087252;28;20053;-63
2022/03/13 13:16:26;;;;;;;15.32;8.43;;;;;;;;;;5087438;28;20148;-63
2022/03/13 13:18:53;;;;;;;14.45;8.32;;;;;;;;;;5086274;28;20044;-63
2022/03/13 13:21:31;;;;;;;15.60;8.15;;;;;;;;;;5086281;28;20060;-63
2022/03/13 13:23:57;;;;;;;;;;;;;;;;;;5066866;28;20503;-63
2022/03/13 13:26:39;;;;;;;12.52;7.65;;;;;;;;;;5065738;28;45458;-63
2022/03/13 13:29:39;;;;;;;14.15;8.05;;;;;;;;;;5066747;28;20053;-63
2022/03/13 13:32:15;;;;;;;14.30;8.25;;;;;;;;;;5066080;28;20138;-63
2022/03/13 13:34:50;;;;;;;14.60;8.23;;;;;;;;;;5066924;28;20052;-62
2022/03/13 13:37:16;;;;;;;13.27;7.78;;;;;;;;;;5067022;28;20077;-63
2022/03/13 13:39:45;;;;;;;14.75;8.60;;;;;;;;;;5071774;28;20430;-62
2022/03/13 13:42:21;;;;;;;16.75;8.60;;;;;;;;;;5085819;28;20162;-63
2022/03/13 13:44:47;;;;;;;15.68;8.25;;;;;;;;;;5089167;28;20557;-63
2022/03/13 13:47:21;;;;;;;12.20;7.57;;;;;;;;;;5090431;28;20092;-63
2022/03/13 13:49:48;;;;;;;13.85;7.78;;;;;;;;;;5089727;28;20059;-63
2022/03/13 13:52:14;;;;;;;14.02;7.57;;;;;;;;;;5090385;28;20049;-63
2022/03/13 13:54:40;;;;;;;13.68;7.45;;;;;;;;;;5090084;28;20059;-62
2022/03/13 13:57:07;;;;;;;11.13;7.05;;;;;;;;;;5089135;28;20154;-63
2022/03/13 13:59:42;;;;;;;11.65;7.30;;;;;;;;;;5090551;28;20049;-63
2022/03/13 14:02:11;;;;;;;13.90;7.40;;;;;;;;;;5089434;28;20061;-63
2022/03/13 14:04:40;;;;;;;11.13;6.15;;;;;;;;;;5090241;28;20060;-62
2022/03/13 14:07:08;;;;;;;11.18;6.10;;;;;;;;;;5090003;28;20044;-62
2022/03/13 14:09:35;;;;;;;10.93;5.93;;;;;;;;;;5086934;28;20053;-62
2022/03/13 14:12:02;;;;;;;8.80;4.85;;;;;;;;;;5068478;28;20077;-62
2022/03/13 14:14:29;;;;;;;9.48;5.40;;;;;;;;;;5070042;28;20517;-62
2022/03/13 14:16:55;;;;;;;8.82;5.03;;;;;;;;;;5068811;28;20057;-62
2022/03/13 14:19:23;;;;;;;9.63;5.20;;;;;;;;;;5069970;28;20503;-62
2022/03/13 14:21:50;;;;;;;8.40;4.63;;;;;;;;;;5069850;28;20071;-63
2022/03/13 14:24:16;;;;;;;9.45;4.97;;;;;;;;;;5068788;28;20128;-62
2022/03/13 14:26:43;;;;;;;9.30;5.32;;;;;;;;;;5069248;28;20057;-63
2022/03/13 14:29:10;;;;;;;10.90;5.68;;;;;;;;;;5069624;28;20499;-62
2022/03/13 14:31:36;;;;;;;8.95;5.15;;;;;;;;;;5069016;28;20049;-62
2022/03/13 14:34:03;;;;;;;8.98;4.68;;;;;;;;;;5069284;28;20055;-62